createdAt,value
2023-04-29T00:00:36.691Z,0.00
2023-04-29T00:01:27.464Z,0.00
2023-04-29T00:02:18.292Z,0.00
2023-04-29T00:03:09.189Z,0.00
2023-04-29T00:04:00.206Z,0.00
2023-04-29T00:04:51.250Z,0.00
2023-04-29T00:05:42.115Z,0.00
2023-04-29T00:06:33.074Z,0.00
2023-04-29T00:07:23.872Z,0.00
2023-04-29T00:08:14.661Z,0.00
2023-04-29T00:09:05.468Z,0.00
2023-04-29T00:09:56.490Z,0.00
2023-04-29T00:10:47.270Z,0.00
2023-04-29T00:11:38.059Z,0.00
2023-04-29T00:12:28.854Z,0.00
2023-04-29T00:13:19.648Z,0.00
2023-04-29T00:14:10.463Z,0.00
2023-04-29T00:15:01.254Z,0.00
2023-04-29T00:15:52.027Z,0.00
2023-04-29T00:16:42.884Z,0.00
2023-04-29T00:17:33.689Z,0.00
2023-04-29T00:18:24.473Z,0.00
2023-04-29T00:19:15.254Z,0.00
2023-04-29T00:20:06.069Z,0.00
2023-04-29T00:20:56.845Z,0.00
2023-04-29T00:21:47.622Z,0.00
2023-04-29T00:22:38.417Z,0.00
2023-04-29T00:23:29.198Z,0.00
2023-04-29T00:24:19.999Z,0.00
2023-04-29T00:25:10.792Z,0.00
2023-04-29T00:26:01.572Z,0.00
2023-04-29T00:26:52.341Z,0.00
2023-04-29T00:27:43.125Z,0.00
2023-04-29T00:28:33.919Z,0.00
2023-04-29T00:29:24.696Z,0.00
2023-04-29T00:30:15.481Z,0.00
2023-04-29T00:31:06.300Z,0.00
2023-04-29T00:31:57.052Z,0.00
2023-04-29T00:32:47.850Z,0.00
2023-04-29T00:33:38.620Z,0.00
2023-04-29T00:34:29.406Z,0.00
2023-04-29T00:35:20.304Z,0.00
2023-04-29T00:36:11.036Z,0.00
2023-04-29T00:37:01.818Z,0.00
2023-04-29T00:37:52.626Z,0.00
2023-04-29T00:38:43.435Z,0.00
2023-04-29T00:39:34.229Z,0.00
2023-04-29T00:40:25.028Z,0.00
2023-04-29T00:41:15.774Z,0.00
2023-04-29T00:42:06.571Z,0.00
2023-04-29T00:42:57.378Z,0.00
2023-04-29T00:43:48.126Z,0.00
2023-04-29T00:44:38.937Z,0.00
2023-04-29T00:45:29.689Z,0.00
2023-04-29T00:46:20.503Z,0.00
2023-04-29T00:47:11.288Z,0.00
2023-04-29T00:48:02.103Z,0.00
2023-04-29T00:48:52.868Z,0.00
2023-04-29T00:49:43.675Z,0.00
2023-04-29T00:50:34.458Z,0.00
2023-04-29T00:51:25.209Z,0.00
2023-04-29T00:52:15.999Z,0.00
2023-04-29T00:53:06.794Z,0.00
2023-04-29T00:53:57.592Z,0.00
2023-04-29T00:54:48.366Z,0.00
2023-04-29T00:55:39.157Z,0.00
2023-04-29T00:56:29.965Z,0.00
2023-04-29T00:57:20.737Z,0.00
2023-04-29T00:58:11.526Z,0.00
2023-04-29T00:59:02.319Z,0.00
2023-04-29T00:59:53.394Z,0.00
2023-04-29T01:00:44.239Z,0.00
2023-04-29T01:01:35.089Z,0.00
2023-04-29T01:02:25.908Z,0.00
2023-04-29T01:03:16.822Z,0.00
2023-04-29T01:04:07.883Z,0.00
2023-04-29T01:04:58.842Z,0.00
2023-04-29T01:05:49.591Z,0.00
2023-04-29T01:06:40.380Z,0.00
2023-04-29T01:07:31.160Z,0.00
2023-04-29T01:08:21.941Z,0.00
2023-04-29T01:09:12.719Z,0.00
2023-04-29T01:10:03.554Z,0.00
2023-04-29T01:10:54.286Z,0.00
2023-04-29T01:11:45.072Z,0.00
2023-04-29T01:12:35.894Z,0.00
2023-04-29T01:13:26.697Z,0.00
2023-04-29T01:14:17.484Z,0.00
2023-04-29T01:15:08.280Z,0.00
2023-04-29T01:15:59.105Z,0.00
2023-04-29T01:16:49.848Z,0.00
2023-04-29T01:17:40.732Z,0.00
2023-04-29T01:18:31.458Z,0.00
2023-04-29T01:19:22.249Z,0.00
2023-04-29T01:20:13.044Z,0.00
2023-04-29T01:21:03.889Z,0.00
2023-04-29T01:21:54.606Z,0.00
2023-04-29T01:22:45.399Z,0.00
2023-04-29T01:23:36.180Z,0.00
2023-04-29T01:24:26.987Z,0.00
2023-04-29T01:25:17.754Z,0.00
2023-04-29T01:26:08.530Z,0.00
2023-04-29T01:26:59.311Z,0.00
2023-04-29T01:27:50.090Z,0.00
2023-04-29T01:28:40.875Z,0.00
2023-04-29T01:29:31.651Z,0.00
2023-04-29T01:30:22.453Z,0.00
2023-04-29T01:31:13.235Z,0.00
2023-04-29T01:32:04.023Z,0.00
2023-04-29T01:32:54.833Z,0.00
2023-04-29T01:33:45.603Z,0.00
2023-04-29T01:34:36.410Z,0.00
2023-04-29T01:35:27.187Z,0.00
2023-04-29T01:36:17.976Z,0.00
2023-04-29T01:37:08.756Z,0.00
2023-04-29T01:37:59.533Z,0.00
2023-04-29T01:38:50.321Z,0.00
2023-04-29T01:39:41.118Z,0.00
2023-04-29T01:40:31.902Z,0.00
2023-04-29T01:41:22.693Z,0.00
2023-04-29T01:42:13.481Z,0.00
2023-04-29T01:43:04.292Z,0.00
2023-04-29T01:43:55.061Z,0.00
2023-04-29T01:44:45.851Z,0.00
2023-04-29T01:45:36.667Z,0.00
2023-04-29T01:46:27.502Z,0.00
2023-04-29T01:47:18.233Z,0.00
2023-04-29T01:48:09.008Z,0.00
2023-04-29T01:48:59.778Z,0.00
2023-04-29T01:49:50.819Z,0.00
2023-04-29T01:50:41.809Z,0.00
2023-04-29T01:51:32.617Z,0.00
2023-04-29T01:52:23.391Z,0.00
2023-04-29T01:53:14.172Z,0.00
2023-04-29T01:54:04.960Z,0.00
2023-04-29T01:54:55.782Z,0.00
2023-04-29T01:55:46.555Z,0.00
2023-04-29T01:56:37.330Z,0.00
2023-04-29T01:57:28.137Z,0.00
2023-04-29T01:58:18.890Z,0.00
2023-04-29T01:59:09.675Z,0.00
2023-04-29T02:00:00.471Z,0.00
2023-04-29T02:00:51.298Z,0.00
2023-04-29T02:01:42.075Z,0.00
2023-04-29T02:02:32.893Z,0.00
2023-04-29T02:03:23.741Z,0.00
2023-04-29T02:04:14.566Z,0.00
2023-04-29T02:05:05.323Z,0.00
2023-04-29T02:05:56.121Z,0.00
2023-04-29T02:06:46.894Z,0.00
2023-04-29T02:07:37.670Z,0.00
2023-04-29T02:08:28.479Z,0.00
2023-04-29T02:09:19.267Z,0.00
2023-04-29T02:10:10.032Z,0.00
2023-04-29T02:11:00.832Z,0.00
2023-04-29T02:11:51.614Z,0.00
2023-04-29T02:12:42.397Z,0.00
2023-04-29T02:13:33.191Z,0.00
2023-04-29T02:14:23.956Z,0.00
2023-04-29T02:15:14.769Z,0.00
2023-04-29T02:16:05.551Z,0.00
2023-04-29T02:16:56.342Z,0.00
2023-04-29T02:17:47.192Z,0.00
2023-04-29T02:18:37.958Z,0.00
2023-04-29T02:19:28.722Z,0.00
2023-04-29T02:20:19.522Z,0.00
2023-04-29T02:21:10.320Z,0.00
2023-04-29T02:22:01.126Z,0.00
2023-04-29T02:22:51.877Z,0.00
2023-04-29T02:23:42.675Z,0.00
2023-04-29T02:24:33.469Z,0.00
2023-04-29T02:25:24.218Z,0.00
2023-04-29T02:26:14.998Z,0.00
2023-04-29T02:27:05.812Z,0.00
2023-04-29T02:27:56.581Z,0.00
2023-04-29T02:28:47.367Z,0.00
2023-04-29T02:29:38.145Z,0.00
2023-04-29T02:30:29.155Z,0.00
2023-04-29T02:31:19.995Z,0.00
2023-04-29T02:32:10.766Z,0.00
2023-04-29T02:33:01.593Z,0.00
2023-04-29T02:33:52.370Z,0.00
2023-04-29T02:34:43.160Z,0.00
2023-04-29T02:35:33.941Z,0.00
2023-04-29T02:36:24.738Z,0.00
2023-04-29T02:37:15.507Z,0.00
2023-04-29T02:38:06.300Z,0.00
2023-04-29T02:38:57.089Z,0.00
2023-04-29T02:39:47.842Z,0.00
2023-04-29T02:40:38.664Z,0.00
2023-04-29T02:41:29.466Z,0.00
2023-04-29T02:42:20.236Z,0.00
2023-04-29T02:43:11.018Z,0.00
2023-04-29T02:44:01.832Z,0.00
2023-04-29T02:44:52.598Z,0.00
2023-04-29T02:45:43.501Z,0.00
2023-04-29T02:46:34.280Z,0.00
2023-04-29T02:47:25.106Z,0.00
2023-04-29T02:48:15.965Z,0.00
2023-04-29T02:49:06.686Z,0.00
2023-04-29T02:49:57.476Z,0.00
2023-04-29T02:50:48.266Z,0.00
2023-04-29T02:51:39.063Z,0.00
2023-04-29T02:52:29.882Z,0.00
2023-04-29T02:53:20.635Z,0.00
2023-04-29T02:54:11.412Z,0.00
2023-04-29T02:55:02.198Z,0.00
2023-04-29T02:55:52.982Z,0.00
2023-04-29T02:56:43.758Z,0.00
2023-04-29T02:57:34.551Z,0.00
2023-04-29T02:58:25.329Z,0.00
2023-04-29T02:59:16.102Z,0.00
2023-04-29T03:00:06.899Z,0.00
2023-04-29T03:00:57.705Z,0.00
2023-04-29T03:01:48.481Z,0.00
2023-04-29T03:02:39.313Z,0.00
2023-04-29T03:03:30.028Z,0.00
2023-04-29T03:04:20.808Z,0.00
2023-04-29T03:05:11.353Z,0.00
2023-04-29T03:06:02.059Z,0.00
2023-04-29T03:06:52.752Z,0.00
2023-04-29T03:07:43.545Z,0.00
2023-04-29T03:08:34.274Z,0.00
2023-04-29T03:09:25.047Z,0.00
2023-04-29T03:10:15.805Z,0.00
2023-04-29T03:11:06.569Z,0.00
2023-04-29T03:11:57.331Z,0.00
2023-04-29T03:12:48.087Z,0.00
2023-04-29T03:13:38.846Z,0.00
2023-04-29T03:14:29.601Z,0.00
2023-04-29T03:15:20.389Z,0.00
2023-04-29T03:16:11.208Z,0.00
2023-04-29T03:17:01.986Z,0.00
2023-04-29T03:17:52.792Z,0.00
2023-04-29T03:18:43.548Z,1.00
2023-04-29T03:19:34.425Z,1.00
2023-04-29T03:20:25.280Z,1.00
2023-04-29T03:21:16.150Z,1.00
2023-04-29T03:22:07.028Z,1.00
2023-04-29T03:22:57.920Z,1.00
2023-04-29T03:23:48.776Z,1.00
2023-04-29T03:24:39.558Z,0.00
2023-04-29T03:25:30.326Z,0.00
2023-04-29T03:26:21.206Z,0.00
2023-04-29T03:27:11.961Z,0.00
2023-04-29T03:28:02.979Z,2.00
2023-04-29T03:28:53.832Z,2.00
2023-04-29T03:29:44.910Z,0.00
2023-04-29T03:30:36.378Z,1.00
2023-04-29T03:31:26.727Z,1.00
2023-04-29T03:32:17.604Z,1.00
2023-04-29T03:33:08.696Z,0.00
2023-04-29T03:33:59.441Z,2.00
2023-04-29T03:34:50.369Z,6.00
2023-04-29T03:35:41.246Z,3.00
2023-04-29T03:36:32.110Z,3.00
2023-04-29T03:37:23.009Z,2.00
2023-04-29T03:38:13.901Z,2.00
2023-04-29T03:39:04.745Z,4.00
2023-04-29T03:39:55.619Z,3.00
2023-04-29T03:40:46.527Z,8.00
2023-04-29T03:41:37.416Z,7.00
2023-04-29T03:42:28.306Z,13.00
2023-04-29T03:43:19.199Z,10.00
2023-04-29T03:44:10.060Z,9.00
2023-04-29T03:45:00.940Z,10.00
2023-04-29T03:45:51.878Z,11.00
2023-04-29T03:46:42.861Z,10.00
2023-04-29T03:47:33.728Z,8.00
2023-04-29T03:48:24.569Z,13.00
2023-04-29T03:49:15.438Z,16.00
2023-04-29T03:50:06.320Z,21.00
2023-04-29T03:50:57.198Z,19.00
2023-04-29T03:51:48.096Z,21.00
2023-04-29T03:52:38.978Z,23.00
2023-04-29T03:53:29.892Z,25.00
2023-04-29T03:54:20.766Z,31.00
2023-04-29T03:55:11.669Z,35.00
2023-04-29T03:56:02.514Z,35.00
2023-04-29T03:56:53.720Z,39.00
2023-04-29T03:57:44.235Z,38.00
2023-04-29T03:58:35.158Z,46.00
2023-04-29T03:59:26.048Z,40.00
2023-04-29T04:00:16.919Z,52.00
2023-04-29T04:01:07.800Z,49.00
2023-04-29T04:01:58.803Z,56.00
2023-04-29T04:02:49.858Z,51.00
2023-04-29T04:03:40.935Z,56.00
2023-04-29T04:04:32.096Z,62.00
2023-04-29T04:05:23.040Z,57.00
2023-04-29T04:06:13.912Z,60.00
2023-04-29T04:07:04.803Z,57.00
2023-04-29T04:07:55.674Z,64.00
2023-04-29T04:08:46.561Z,74.00
2023-04-29T04:09:37.425Z,79.00
2023-04-29T04:10:28.325Z,76.00
2023-04-29T04:11:19.181Z,85.00
2023-04-29T04:12:10.071Z,86.00
2023-04-29T04:13:00.928Z,91.00
2023-04-29T04:13:51.824Z,90.00
2023-04-29T04:14:42.716Z,97.00
2023-04-29T04:15:33.617Z,95.00
2023-04-29T04:16:24.540Z,83.00
2023-04-29T04:17:15.445Z,94.00
2023-04-29T04:18:06.432Z,98.00
2023-04-29T04:18:57.308Z,109.00
2023-04-29T04:19:48.218Z,120.00
2023-04-29T04:20:39.136Z,123.00
2023-04-29T04:21:30.015Z,119.00
2023-04-29T04:22:20.914Z,131.00
2023-04-29T04:23:11.800Z,129.00
2023-04-29T04:24:02.772Z,135.00
2023-04-29T04:24:53.587Z,134.00
2023-04-29T04:25:44.477Z,135.00
2023-04-29T04:26:35.400Z,151.00
2023-04-29T04:27:26.311Z,153.00
2023-04-29T04:28:17.209Z,158.00
2023-04-29T04:29:08.118Z,173.00
2023-04-29T04:29:59.020Z,180.00
2023-04-29T04:30:49.917Z,193.00
2023-04-29T04:31:40.847Z,196.00
2023-04-29T04:32:31.763Z,202.00
2023-04-29T04:33:22.628Z,210.00
2023-04-29T04:34:13.540Z,221.00
2023-04-29T04:35:04.455Z,218.00
2023-04-29T04:35:55.379Z,222.00
2023-04-29T04:36:46.262Z,235.00
2023-04-29T04:37:37.190Z,238.00
2023-04-29T04:38:28.108Z,258.00
2023-04-29T04:39:19.032Z,271.00
2023-04-29T04:40:09.925Z,271.00
2023-04-29T04:41:00.848Z,280.00
2023-04-29T04:41:51.758Z,289.00
2023-04-29T04:42:42.673Z,297.00
2023-04-29T04:43:33.581Z,299.00
2023-04-29T04:44:24.520Z,312.00
2023-04-29T04:45:15.399Z,308.00
2023-04-29T04:46:06.349Z,308.00
2023-04-29T04:46:57.238Z,318.00
2023-04-29T04:47:48.194Z,318.00
2023-04-29T04:48:39.040Z,315.00
2023-04-29T04:49:29.946Z,324.00
2023-04-29T04:50:20.859Z,328.00
2023-04-29T04:51:11.785Z,331.00
2023-04-29T04:52:02.710Z,340.00
2023-04-29T04:52:53.648Z,347.00
2023-04-29T04:53:44.552Z,344.00
2023-04-29T04:54:35.470Z,354.00
2023-04-29T04:55:26.406Z,359.00
2023-04-29T04:56:17.307Z,361.00
2023-04-29T04:57:08.211Z,369.00
2023-04-29T04:57:59.124Z,380.00
2023-04-29T04:58:50.036Z,380.00
2023-04-29T04:59:40.929Z,387.00
2023-04-29T05:00:31.840Z,390.00
2023-04-29T05:01:22.758Z,393.00
2023-04-29T05:02:13.719Z,398.00
2023-04-29T05:03:04.757Z,404.00
2023-04-29T05:03:55.742Z,414.00
2023-04-29T05:04:46.715Z,417.00
2023-04-29T05:05:37.649Z,422.00
2023-04-29T05:06:28.554Z,426.00
2023-04-29T05:07:19.485Z,427.00
2023-04-29T05:08:10.376Z,437.00
2023-04-29T05:09:01.268Z,439.00
2023-04-29T05:09:52.339Z,444.00
2023-04-29T05:10:44.563Z,448.00
2023-04-29T05:11:34.320Z,446.00
2023-04-29T05:12:25.232Z,450.00
2023-04-29T05:13:16.144Z,451.00
2023-04-29T05:14:07.038Z,453.00
2023-04-29T05:14:57.954Z,457.00
2023-04-29T05:15:48.880Z,460.00
2023-04-29T05:16:39.825Z,463.00
2023-04-29T05:17:30.739Z,459.00
2023-04-29T05:18:21.643Z,336.00
2023-04-29T05:19:12.549Z,340.00
2023-04-29T05:20:03.519Z,344.00
2023-04-29T05:20:54.381Z,350.00
2023-04-29T05:21:45.294Z,352.00
2023-04-29T05:22:36.193Z,357.00
2023-04-29T05:23:27.184Z,358.00
2023-04-29T05:24:18.049Z,362.00
2023-04-29T05:25:09.041Z,366.00
2023-04-29T05:25:59.894Z,368.00
2023-04-29T05:26:50.776Z,370.00
2023-04-29T05:27:41.693Z,383.00
2023-04-29T05:28:32.618Z,383.00
2023-04-29T05:29:23.532Z,387.00
2023-04-29T05:30:14.449Z,390.00
2023-04-29T05:31:05.393Z,397.00
2023-04-29T05:31:56.272Z,399.00
2023-04-29T05:32:47.265Z,402.00
2023-04-29T05:33:38.148Z,405.00
2023-04-29T05:34:29.054Z,409.00
2023-04-29T05:35:19.963Z,411.00
2023-04-29T05:36:10.900Z,412.00
2023-04-29T05:37:01.793Z,416.00
2023-04-29T05:37:52.721Z,417.00
2023-04-29T05:38:43.614Z,420.00
2023-04-29T05:39:34.511Z,426.00
2023-04-29T05:40:25.455Z,428.00
2023-04-29T05:41:16.348Z,435.00
2023-04-29T05:42:07.236Z,439.00
2023-04-29T05:42:58.192Z,446.00
2023-04-29T05:43:49.113Z,451.00
2023-04-29T05:44:40.023Z,455.00
2023-04-29T05:45:30.912Z,461.00
2023-04-29T05:46:21.860Z,464.00
2023-04-29T05:47:12.777Z,468.00
2023-04-29T05:48:03.726Z,430.00
2023-04-29T05:48:54.597Z,336.00
2023-04-29T05:49:45.508Z,327.00
2023-04-29T05:50:36.424Z,419.00
2023-04-29T05:51:27.333Z,413.00
2023-04-29T05:52:18.271Z,420.00
2023-04-29T05:53:09.161Z,406.00
2023-04-29T05:54:00.113Z,417.00
2023-04-29T05:54:50.994Z,153.00
2023-04-29T05:55:41.917Z,476.00
2023-04-29T05:56:32.815Z,480.00
2023-04-29T05:57:23.712Z,487.00
2023-04-29T05:58:14.626Z,489.00
2023-04-29T05:59:05.537Z,495.00
2023-04-29T05:59:56.455Z,501.00
2023-04-29T06:00:47.358Z,504.00
2023-04-29T06:01:38.255Z,506.00
2023-04-29T06:02:29.266Z,510.00
2023-04-29T06:03:20.245Z,512.00
2023-04-29T06:04:11.385Z,517.00
2023-04-29T06:05:02.828Z,517.00
2023-04-29T06:05:53.349Z,218.00
2023-04-29T06:06:44.379Z,351.00
2023-04-29T06:07:35.290Z,355.00
2023-04-29T06:08:26.216Z,464.00
2023-04-29T06:09:26.953Z,292.00
2023-04-29T06:10:09.088Z,353.00
2023-04-29T06:10:58.799Z,353.00
2023-04-29T06:11:49.700Z,447.00
2023-04-29T06:12:40.599Z,436.00
2023-04-29T06:13:31.504Z,473.00
2023-04-29T06:14:22.405Z,535.00
2023-04-29T06:15:13.308Z,533.00
2023-04-29T06:16:04.238Z,507.00
2023-04-29T06:16:55.125Z,497.00
2023-04-29T06:17:46.063Z,481.00
2023-04-29T06:18:36.945Z,435.00
2023-04-29T06:19:27.866Z,538.00
2023-04-29T06:20:18.772Z,487.00
2023-04-29T06:21:09.691Z,545.00
2023-04-29T06:22:00.622Z,573.00
2023-04-29T06:22:51.539Z,575.00
2023-04-29T06:23:42.466Z,579.00
2023-04-29T06:24:33.372Z,586.00
2023-04-29T06:25:24.289Z,589.00
2023-04-29T06:26:15.230Z,574.00
2023-04-29T06:27:06.122Z,601.00
2023-04-29T06:27:57.081Z,606.00
2023-04-29T06:28:47.974Z,611.00
2023-04-29T06:29:38.888Z,611.00
2023-04-29T06:30:29.789Z,620.00
2023-04-29T06:31:22.561Z,620.00
2023-04-29T06:32:11.594Z,626.00
2023-04-29T06:33:02.515Z,632.00
2023-04-29T06:33:53.395Z,638.00
2023-04-29T06:34:44.319Z,642.00
2023-04-29T06:35:35.221Z,645.00
2023-04-29T06:36:26.113Z,655.00
2023-04-29T06:37:17.026Z,656.00
2023-04-29T06:38:07.941Z,651.00
2023-04-29T06:38:58.864Z,653.00
2023-04-29T06:39:49.755Z,661.00
2023-04-29T06:40:40.665Z,647.00
2023-04-29T06:41:31.623Z,663.00
2023-04-29T06:42:22.496Z,672.00
2023-04-29T06:43:13.396Z,682.00
2023-04-29T06:44:04.375Z,693.00
2023-04-29T06:44:55.303Z,683.00
2023-04-29T06:45:46.176Z,687.00
2023-04-29T06:46:37.192Z,695.00
2023-04-29T06:47:28.202Z,693.00
2023-04-29T06:48:19.092Z,705.00
2023-04-29T06:49:10.039Z,701.00
2023-04-29T06:50:00.939Z,687.00
2023-04-29T06:50:51.845Z,700.00
2023-04-29T06:51:42.824Z,713.00
2023-04-29T06:52:33.703Z,697.00
2023-04-29T06:53:24.613Z,496.00
2023-04-29T06:54:15.523Z,228.00
2023-04-29T06:55:06.435Z,634.00
2023-04-29T06:55:57.345Z,453.00
2023-04-29T06:56:48.267Z,446.00
2023-04-29T06:57:39.161Z,600.00
2023-04-29T06:58:30.062Z,528.00
2023-04-29T06:59:20.971Z,536.00
2023-04-29T07:00:11.877Z,423.00
2023-04-29T07:01:02.800Z,682.00
2023-04-29T07:01:53.738Z,766.00
2023-04-29T07:02:44.654Z,456.00
2023-04-29T07:03:35.676Z,784.00
2023-04-29T07:04:26.628Z,753.00
2023-04-29T07:05:17.526Z,734.00
2023-04-29T07:06:08.439Z,361.00
2023-04-29T07:06:59.330Z,539.00
2023-04-29T07:07:50.234Z,543.00
2023-04-29T07:08:41.144Z,802.00
2023-04-29T07:09:32.087Z,833.00
2023-04-29T07:10:22.965Z,831.00
2023-04-29T07:11:13.872Z,303.00
2023-04-29T07:12:04.811Z,836.00
2023-04-29T07:12:55.695Z,843.00
2023-04-29T07:13:46.620Z,829.00
2023-04-29T07:14:37.532Z,834.00
2023-04-29T07:15:28.436Z,170.00
2023-04-29T07:16:19.353Z,113.00
2023-04-29T07:17:12.640Z,161.00
2023-04-29T07:18:01.171Z,135.00
2023-04-29T07:18:52.054Z,123.00
2023-04-29T07:19:42.958Z,362.00
2023-04-29T07:20:33.873Z,430.00
2023-04-29T07:21:24.796Z,880.00
2023-04-29T07:22:15.728Z,877.00
2023-04-29T07:23:06.676Z,879.00
2023-04-29T07:23:57.576Z,887.00
2023-04-29T07:24:48.507Z,885.00
2023-04-29T07:25:39.409Z,885.00
2023-04-29T07:26:30.332Z,885.00
2023-04-29T07:27:21.246Z,897.00
2023-04-29T07:28:12.146Z,907.00
2023-04-29T07:29:03.054Z,909.00
2023-04-29T07:29:53.962Z,919.00
2023-04-29T07:30:44.889Z,918.00
2023-04-29T07:31:38.067Z,915.00
2023-04-29T07:32:26.754Z,921.00
2023-04-29T07:33:17.646Z,923.00
2023-04-29T07:34:08.558Z,928.00
2023-04-29T07:34:59.460Z,929.00
2023-04-29T07:35:50.385Z,939.00
2023-04-29T07:36:41.285Z,945.00
2023-04-29T07:37:32.218Z,959.00
2023-04-29T07:38:23.181Z,965.00
2023-04-29T07:39:14.092Z,963.00
2023-04-29T07:40:05.003Z,967.00
2023-04-29T07:40:55.929Z,969.00
2023-04-29T07:41:46.846Z,978.00
2023-04-29T07:42:37.790Z,985.00
2023-04-29T07:43:28.699Z,990.00
2023-04-29T07:44:19.591Z,986.00
2023-04-29T07:45:10.473Z,985.00
2023-04-29T07:46:01.450Z,990.00
2023-04-29T07:46:52.411Z,994.00
2023-04-29T07:47:43.373Z,1002.00
2023-04-29T07:48:34.284Z,1013.00
2023-04-29T07:49:25.178Z,1021.00
2023-04-29T07:50:16.084Z,1023.00
2023-04-29T07:51:07.000Z,1023.00
2023-04-29T07:51:57.894Z,551.00
2023-04-29T07:52:48.815Z,502.00
2023-04-29T07:53:39.726Z,530.00
2023-04-29T07:54:30.645Z,556.00
2023-04-29T07:55:21.547Z,566.00
2023-04-29T07:56:12.466Z,548.00
2023-04-29T07:57:03.387Z,572.00
2023-04-29T07:57:54.317Z,540.00
2023-04-29T07:58:45.221Z,564.00
2023-04-29T07:59:36.217Z,555.00
2023-04-29T08:00:27.111Z,574.00
2023-04-29T08:01:18.031Z,555.00
2023-04-29T08:02:08.929Z,599.00
2023-04-29T08:02:59.954Z,629.00
2023-04-29T08:03:51.059Z,415.00
2023-04-29T08:04:42.417Z,606.00
2023-04-29T08:05:33.783Z,611.00
2023-04-29T08:06:23.636Z,602.00
2023-04-29T08:07:15.390Z,571.00
2023-04-29T08:08:05.666Z,573.00
2023-04-29T08:08:56.579Z,583.00
2023-04-29T08:09:47.489Z,617.00
2023-04-29T08:10:38.402Z,625.00
2023-04-29T08:11:29.339Z,697.00
2023-04-29T08:12:20.261Z,641.00
2023-04-29T08:13:11.208Z,638.00
2023-04-29T08:14:02.083Z,514.00
2023-04-29T08:14:53.399Z,641.00
2023-04-29T08:15:43.977Z,643.00
2023-04-29T08:16:34.865Z,648.00
2023-04-29T08:17:25.786Z,635.00
2023-04-29T08:18:16.692Z,646.00
2023-04-29T08:19:07.612Z,643.00
2023-04-29T08:19:58.518Z,657.00
2023-04-29T08:20:49.430Z,644.00
2023-04-29T08:21:40.355Z,670.00
2023-04-29T08:22:31.272Z,665.00
2023-04-29T08:23:22.163Z,649.00
2023-04-29T08:24:13.078Z,655.00
2023-04-29T08:25:03.987Z,651.00
2023-04-29T08:25:54.880Z,683.00
2023-04-29T08:26:45.793Z,683.00
2023-04-29T08:27:36.745Z,686.00
2023-04-29T08:28:27.643Z,675.00
2023-04-29T08:29:18.595Z,681.00
2023-04-29T08:30:09.456Z,657.00
2023-04-29T08:31:00.363Z,663.00
2023-04-29T08:31:51.317Z,678.00
2023-04-29T08:32:42.231Z,672.00
2023-04-29T08:33:33.340Z,676.00
2023-04-29T08:34:24.177Z,476.00
2023-04-29T08:35:15.086Z,681.00
2023-04-29T08:36:06.000Z,692.00
2023-04-29T08:36:56.916Z,762.00
2023-04-29T08:37:47.830Z,728.00
2023-04-29T08:38:38.769Z,797.00
2023-04-29T08:39:29.672Z,726.00
2023-04-29T08:40:20.580Z,855.00
2023-04-29T08:41:11.485Z,682.00
2023-04-29T08:42:02.465Z,748.00
2023-04-29T08:42:53.321Z,744.00
2023-04-29T08:43:44.259Z,672.00
2023-04-29T08:44:35.144Z,749.00
2023-04-29T08:45:26.067Z,706.00
2023-04-29T08:46:16.994Z,719.00
2023-04-29T08:47:07.843Z,653.00
2023-04-29T08:47:58.856Z,765.00
2023-04-29T08:48:49.858Z,790.00
2023-04-29T08:49:40.757Z,134.00
2023-04-29T08:50:31.629Z,814.00
2023-04-29T08:51:22.558Z,779.00
2023-04-29T08:52:13.465Z,789.00
2023-04-29T08:53:04.391Z,915.00
2023-04-29T08:53:55.299Z,863.00
2023-04-29T08:54:46.232Z,880.00
2023-04-29T08:55:37.136Z,882.00
2023-04-29T08:56:28.227Z,989.00
2023-04-29T08:57:19.187Z,897.00
2023-04-29T08:58:10.119Z,785.00
2023-04-29T08:59:01.051Z,1206.00
2023-04-29T08:59:51.962Z,892.00
2023-04-29T09:00:43.262Z,911.00
2023-04-29T09:01:33.904Z,967.00
2023-04-29T09:02:24.954Z,1108.00
2023-04-29T09:03:15.920Z,910.00
2023-04-29T09:04:06.867Z,930.00
2023-04-29T09:04:57.855Z,919.00
2023-04-29T09:05:48.698Z,920.00
2023-04-29T09:06:39.627Z,406.00
2023-04-29T09:07:30.560Z,1074.00
2023-04-29T09:08:21.476Z,1074.00
2023-04-29T09:09:12.398Z,804.00
2023-04-29T09:10:03.303Z,825.00
2023-04-29T09:10:54.231Z,910.00
2023-04-29T09:11:45.172Z,1043.00
2023-04-29T09:12:36.103Z,1083.00
2023-04-29T09:13:27.042Z,1150.00
2023-04-29T09:14:17.954Z,992.00
2023-04-29T09:15:08.846Z,844.00
2023-04-29T09:15:59.767Z,799.00
2023-04-29T09:16:50.705Z,777.00
2023-04-29T09:17:41.684Z,906.00
2023-04-29T09:18:32.575Z,908.00
2023-04-29T09:19:23.469Z,942.00
2023-04-29T09:20:14.396Z,749.00
2023-04-29T09:21:05.299Z,988.00
2023-04-29T09:21:56.212Z,1210.00
2023-04-29T09:22:47.166Z,1251.00
2023-04-29T09:23:38.061Z,1326.00
2023-04-29T09:24:28.974Z,1248.00
2023-04-29T09:25:19.892Z,1214.00
2023-04-29T09:26:10.827Z,1287.00
2023-04-29T09:27:01.738Z,1145.00
2023-04-29T09:27:52.671Z,978.00
2023-04-29T09:28:43.621Z,1304.00
2023-04-29T09:29:34.547Z,1332.00
2023-04-29T09:30:25.435Z,558.00
2023-04-29T09:31:16.362Z,671.00
2023-04-29T09:32:07.387Z,1187.00
2023-04-29T09:32:58.377Z,1024.00
2023-04-29T09:33:49.268Z,1268.00
2023-04-29T09:34:40.186Z,1329.00
2023-04-29T09:35:31.089Z,1355.00
2023-04-29T09:36:22.016Z,1318.00
2023-04-29T09:37:12.961Z,1345.00
2023-04-29T09:38:03.901Z,1030.00
2023-04-29T09:38:54.794Z,1115.00
2023-04-29T09:39:45.730Z,1162.00
2023-04-29T09:40:50.110Z,1116.00
2023-04-29T09:41:28.569Z,953.00
2023-04-29T09:42:18.266Z,921.00
2023-04-29T09:43:09.164Z,433.00
2023-04-29T09:44:00.108Z,1038.00
2023-04-29T09:44:51.051Z,709.00
2023-04-29T09:45:41.993Z,965.00
2023-04-29T09:46:32.948Z,235.00
2023-04-29T09:47:23.856Z,1057.00
2023-04-29T09:48:14.732Z,1060.00
2023-04-29T09:49:05.642Z,851.00
2023-04-29T09:49:56.566Z,972.00
2023-04-29T09:50:47.498Z,1104.00
2023-04-29T09:51:38.415Z,1121.00
2023-04-29T09:52:29.338Z,929.00
2023-04-29T09:53:20.264Z,1164.00
2023-04-29T09:54:11.181Z,1479.00
2023-04-29T09:55:02.082Z,1281.00
2023-04-29T09:55:53.014Z,1117.00
2023-04-29T09:56:43.938Z,1137.00
2023-04-29T09:57:34.863Z,1288.00
2023-04-29T09:58:25.787Z,1222.00
2023-04-29T09:59:16.705Z,1157.00
2023-04-29T10:00:07.659Z,1155.00
2023-04-29T10:00:58.545Z,1154.00
2023-04-29T10:01:49.535Z,1184.00
2023-04-29T10:02:40.474Z,1206.00
2023-04-29T10:03:31.392Z,1162.00
2023-04-29T10:04:22.374Z,338.00
2023-04-29T10:05:13.340Z,1031.00
2023-04-29T10:06:04.257Z,953.00
2023-04-29T10:06:55.144Z,1079.00
2023-04-29T10:07:46.074Z,884.00
2023-04-29T10:08:37.015Z,225.00
2023-04-29T10:09:27.917Z,191.00
2023-04-29T10:10:18.858Z,812.00
2023-04-29T10:11:09.739Z,888.00
2023-04-29T10:12:00.633Z,1047.00
2023-04-29T10:12:51.574Z,1364.00
2023-04-29T10:13:42.493Z,1242.00
2023-04-29T10:14:33.425Z,1492.00
2023-04-29T10:15:24.365Z,1389.00
2023-04-29T10:16:15.296Z,1415.00
2023-04-29T10:17:06.204Z,1583.00
2023-04-29T10:17:57.121Z,1138.00
2023-04-29T10:18:48.104Z,1201.00
2023-04-29T10:19:38.975Z,1238.00
2023-04-29T10:20:29.894Z,1339.00
2023-04-29T10:21:20.829Z,1359.00
2023-04-29T10:22:11.752Z,1136.00
2023-04-29T10:23:02.662Z,2136.00
2023-04-29T10:23:53.594Z,792.00
2023-04-29T10:24:44.540Z,1906.00
2023-04-29T10:25:35.484Z,1577.00
2023-04-29T10:26:26.422Z,1638.00
2023-04-29T10:27:17.420Z,1891.00
2023-04-29T10:28:08.324Z,1770.00
2023-04-29T10:28:59.290Z,1740.00
2023-04-29T10:29:50.189Z,1714.00
2023-04-29T10:30:41.153Z,1716.00
2023-04-29T10:31:32.082Z,1359.00
2023-04-29T10:32:23.007Z,1531.00
2023-04-29T10:33:13.968Z,1426.00
2023-04-29T10:34:04.849Z,1577.00
2023-04-29T10:34:55.760Z,1449.00
2023-04-29T10:35:46.699Z,1590.00
2023-04-29T10:36:37.642Z,1565.00
2023-04-29T10:37:28.568Z,1498.00
2023-04-29T10:38:19.525Z,1305.00
2023-04-29T10:39:10.448Z,1348.00
2023-04-29T10:40:01.367Z,1515.00
2023-04-29T10:40:52.320Z,1374.00
2023-04-29T10:41:43.258Z,1450.00
2023-04-29T10:42:34.208Z,1408.00
2023-04-29T10:43:25.146Z,1550.00
2023-04-29T10:44:16.081Z,1648.00
2023-04-29T10:45:07.020Z,1574.00
2023-04-29T10:45:58.036Z,1659.00
2023-04-29T10:46:48.977Z,1649.00
2023-04-29T10:47:39.951Z,1564.00